createdAt,value
2022-07-29T00:01:05.094Z,16.67
2022-07-29T00:03:32.552Z,14.63
2022-07-29T00:06:00.792Z,16.88
2022-07-29T00:08:29.822Z,14.52
2022-07-29T00:10:57.235Z,16.98
2022-07-29T00:13:31.846Z,16.00
2022-07-29T00:16:04.424Z,16.08
2022-07-29T00:18:32.754Z,18.63
2022-07-29T00:21:00.469Z,14.43
2022-07-29T00:23:30.649Z,17.52
2022-07-29T00:25:58.189Z,16.88
2022-07-29T00:28:25.615Z,14.98
2022-07-29T00:30:53.015Z,16.08
2022-07-29T00:33:20.436Z,17.02
2022-07-29T00:35:47.934Z,16.40
2022-07-29T00:38:16.761Z,18.92
2022-07-29T00:40:46.054Z,19.20
2022-07-29T00:43:14.403Z,18.70
2022-07-29T00:45:41.820Z,17.40
2022-07-29T00:48:09.247Z,18.50
2022-07-29T00:50:37.450Z,18.88
2022-07-29T00:53:07.058Z,17.10
2022-07-29T00:58:03.101Z,16.90
2022-07-29T01:00:30.955Z,14.60
2022-07-29T01:02:58.782Z,16.05
2022-07-29T01:05:48.065Z,20.85
2022-07-29T01:08:17.135Z,25.27
2022-07-29T01:10:46.134Z,19.13
2022-07-29T01:13:15.842Z,18.77
2022-07-29T01:15:49.192Z,17.27
2022-07-29T01:18:22.112Z,17.40
2022-07-29T01:21:07.091Z,17.85
2022-07-29T01:23:49.250Z,16.98
2022-07-29T01:26:53.571Z,16.15
2022-07-29T01:29:36.092Z,22.00
2022-07-29T01:32:09.853Z,23.05
2022-07-29T01:35:03.134Z,21.20
2022-07-29T01:37:39.149Z,16.52
2022-07-29T01:40:12.945Z,17.23
2022-07-29T01:42:45.185Z,15.00
2022-07-29T01:45:18.151Z,16.13
2022-07-29T01:47:49.728Z,15.38
2022-07-29T01:50:19.531Z,14.38
2022-07-29T01:52:53.700Z,13.52
2022-07-29T01:55:23.446Z,15.20
2022-07-29T01:57:50.890Z,13.50
2022-07-29T02:00:20.083Z,13.27
2022-07-29T02:02:49.436Z,13.38
2022-07-29T02:05:20.128Z,13.70
2022-07-29T02:07:49.552Z,14.50
2022-07-29T02:10:19.871Z,13.82
2022-07-29T02:12:55.288Z,12.80
2022-07-29T02:15:26.753Z,11.88
2022-07-29T02:17:59.549Z,13.32
2022-07-29T02:20:28.907Z,15.65
2022-07-29T02:22:58.431Z,13.80
2022-07-29T02:25:26.198Z,14.27
2022-07-29T02:28:06.424Z,13.25
2022-07-29T02:30:37.770Z,14.27
2022-07-29T02:33:06.922Z,15.30
2022-07-29T02:35:35.130Z,14.68
2022-07-29T02:38:04.369Z,12.40
2022-07-29T02:40:31.796Z,13.32
2022-07-29T02:43:00.504Z,13.82
2022-07-29T02:45:28.779Z,14.07
2022-07-29T02:48:00.889Z,13.80
2022-07-29T02:50:33.943Z,14.52
2022-07-29T02:53:06.640Z,12.95
2022-07-29T02:55:38.087Z,15.10
2022-07-29T02:58:14.590Z,15.60
2022-07-29T03:00:43.976Z,16.92
2022-07-29T03:03:16.147Z,14.23
2022-07-29T03:05:43.569Z,12.38
2022-07-29T03:08:13.190Z,14.90
2022-07-29T03:13:12.546Z,12.73
2022-07-29T03:15:40.400Z,14.90
2022-07-29T03:18:08.442Z,14.18
2022-07-29T03:20:38.916Z,16.73
2022-07-29T03:23:06.314Z,13.40
2022-07-29T03:25:33.878Z,12.80
2022-07-29T03:28:01.351Z,11.23
2022-07-29T03:30:28.770Z,13.40
2022-07-29T03:32:56.638Z,14.63
2022-07-29T03:35:26.355Z,13.25
2022-07-29T03:37:55.241Z,12.75
2022-07-29T03:40:27.677Z,11.65
2022-07-29T03:42:56.680Z,12.48
2022-07-29T03:45:25.502Z,10.55
2022-07-29T03:48:00.696Z,11.80
2022-07-29T03:50:29.791Z,12.52
2022-07-29T03:52:59.313Z,12.40
2022-07-29T03:55:27.667Z,13.48
2022-07-29T03:57:56.820Z,13.05
2022-07-29T04:00:26.703Z,15.32
2022-07-29T04:02:54.345Z,13.77
2022-07-29T04:05:21.838Z,14.73
2022-07-29T04:07:49.524Z,15.00
2022-07-29T04:10:30.037Z,13.88
2022-07-29T04:12:59.932Z,13.52
2022-07-29T04:15:31.425Z,23.98
2022-07-29T04:17:59.596Z,14.95
2022-07-29T04:20:27.012Z,20.95
2022-07-29T04:22:54.403Z,17.42
2022-07-29T04:25:23.353Z,15.57
2022-07-29T04:27:51.254Z,26.63
2022-07-29T04:30:18.743Z,16.38
2022-07-29T04:32:46.112Z,18.08
2022-07-29T04:35:13.514Z,16.42
2022-07-29T04:37:40.901Z,14.93
2022-07-29T04:40:09.404Z,17.35
2022-07-29T04:42:46.536Z,15.70
2022-07-29T04:45:15.307Z,13.35
2022-07-29T04:47:43.573Z,10.15
2022-07-29T04:50:11.085Z,12.02
2022-07-29T04:52:38.672Z,37.30
2022-07-29T04:55:07.296Z,20.30
2022-07-29T04:57:34.682Z,18.88
2022-07-29T05:00:04.442Z,17.95
2022-07-29T05:02:32.125Z,20.02
2022-07-29T05:04:59.593Z,15.52
2022-07-29T05:07:27.043Z,19.10
2022-07-29T05:09:54.608Z,18.73
2022-07-29T05:12:21.979Z,17.73
2022-07-29T05:14:49.367Z,23.08
2022-07-29T05:17:18.175Z,27.23
2022-07-29T05:19:45.615Z,51.87
2022-07-29T05:22:12.958Z,25.52
2022-07-29T05:24:40.373Z,33.17
2022-07-29T05:27:07.778Z,63.50
2022-07-29T05:29:44.539Z,86.80
2022-07-29T05:32:13.602Z,35.63
2022-07-29T05:34:50.700Z,42.88
2022-07-29T05:37:20.000Z,34.25
2022-07-29T05:39:50.610Z,35.15
2022-07-29T05:42:24.650Z,17.40
2022-07-29T05:44:52.053Z,26.10
2022-07-29T05:47:19.661Z,20.23
2022-07-29T05:49:48.671Z,23.00
2022-07-29T05:52:16.338Z,21.85
2022-07-29T05:54:43.962Z,19.55
2022-07-29T05:57:17.325Z,18.25
2022-07-29T05:59:44.793Z,16.48
2022-07-29T06:02:12.353Z,17.13
2022-07-29T06:04:39.828Z,22.63
2022-07-29T06:07:08.798Z,22.30
2022-07-29T06:09:36.573Z,60.20
2022-07-29T06:12:04.971Z,41.65
2022-07-29T06:14:32.423Z,50.92
2022-07-29T06:16:59.885Z,25.20
2022-07-29T06:19:27.278Z,18.42
2022-07-29T06:21:54.814Z,21.52
2022-07-29T06:24:23.661Z,24.20
2022-07-29T06:26:51.061Z,21.63
2022-07-29T06:29:18.517Z,20.92
2022-07-29T06:31:45.977Z,19.70
2022-07-29T06:34:13.678Z,24.60
2022-07-29T06:36:41.631Z,31.85
2022-07-29T06:39:09.946Z,48.88
2022-07-29T06:41:40.605Z,50.67
2022-07-29T06:44:10.593Z,55.00
2022-07-29T06:46:38.068Z,29.77
2022-07-29T06:49:05.864Z,23.10
2022-07-29T06:51:33.410Z,26.00
2022-07-29T06:54:02.759Z,21.42
2022-07-29T06:56:31.670Z,17.30
2022-07-29T06:59:01.615Z,15.93
2022-07-29T07:01:29.121Z,14.63
2022-07-29T07:03:56.717Z,13.25
2022-07-29T07:06:24.253Z,11.63
2022-07-29T07:08:51.741Z,14.63
2022-07-29T07:11:19.395Z,16.13
2022-07-29T07:13:46.910Z,14.02
2022-07-29T07:16:16.218Z,13.02
2022-07-29T07:18:43.774Z,13.02
2022-07-29T07:21:11.314Z,10.15
2022-07-29T07:23:39.001Z,13.25
2022-07-29T07:26:06.517Z,10.73
2022-07-29T07:28:34.032Z,13.35
2022-07-29T07:31:01.537Z,10.95
2022-07-29T07:33:30.470Z,11.88
2022-07-29T07:35:57.991Z,16.20
2022-07-29T07:38:25.441Z,11.13
2022-07-29T07:40:52.972Z,14.35
2022-07-29T07:43:20.426Z,51.67
2022-07-29T07:45:50.120Z,14.00
2022-07-29T07:48:17.704Z,13.23
2022-07-29T07:50:46.886Z,12.52
2022-07-29T07:53:14.524Z,13.25
2022-07-29T07:56:09.387Z,15.38
2022-07-29T07:58:32.236Z,13.23
2022-07-29T08:00:59.778Z,15.35
2022-07-29T08:03:27.352Z,16.15
2022-07-29T08:05:56.454Z,12.98
2022-07-29T08:08:24.018Z,11.70
2022-07-29T08:10:51.545Z,13.18
2022-07-29T08:13:19.687Z,15.63
2022-07-29T08:15:47.263Z,9.95
2022-07-29T08:18:14.806Z,11.25
2022-07-29T08:20:42.325Z,14.60
2022-07-29T08:23:11.255Z,12.80
2022-07-29T08:25:39.004Z,11.50
2022-07-29T08:28:07.834Z,12.13
2022-07-29T08:30:35.712Z,12.52
2022-07-29T08:33:03.720Z,11.68
2022-07-29T08:35:35.538Z,12.18
2022-07-29T08:38:04.506Z,12.27
2022-07-29T08:40:33.529Z,10.45
2022-07-29T08:43:06.477Z,9.75
2022-07-29T08:45:44.817Z,9.80
2022-07-29T08:48:17.419Z,10.30
2022-07-29T08:53:16.004Z,7.60
2022-07-29T08:55:46.860Z,9.43
2022-07-29T08:58:15.780Z,12.45
2022-07-29T09:00:46.153Z,10.65
2022-07-29T09:03:18.250Z,9.73
2022-07-29T09:05:48.251Z,10.73
2022-07-29T09:08:16.937Z,10.85
2022-07-29T09:10:46.088Z,10.60
2022-07-29T09:13:13.630Z,12.68
2022-07-29T09:15:41.540Z,11.73
2022-07-29T09:18:19.483Z,12.00
2022-07-29T09:20:57.963Z,13.25
2022-07-29T09:23:25.462Z,11.40
2022-07-29T09:25:54.568Z,34.55
2022-07-29T09:28:22.215Z,24.58
2022-07-29T09:30:53.822Z,19.17
2022-07-29T09:33:22.080Z,22.50
2022-07-29T09:36:00.383Z,29.73
2022-07-29T09:38:29.449Z,37.42
2022-07-29T09:41:05.506Z,33.42
2022-07-29T09:43:35.207Z,34.55
2022-07-29T09:46:12.659Z,22.77
2022-07-29T09:48:40.598Z,36.92
2022-07-29T09:51:21.424Z,34.28
2022-07-29T09:53:50.774Z,28.10
2022-07-29T09:56:39.034Z,16.88
2022-07-29T09:59:07.338Z,15.90
2022-07-29T10:01:34.931Z,13.65
2022-07-29T10:04:02.693Z,14.60
2022-07-29T10:06:30.325Z,15.13
2022-07-29T10:09:08.574Z,16.35
2022-07-29T10:11:49.546Z,16.42
2022-07-29T10:14:18.063Z,11.48
2022-07-29T10:16:45.933Z,89.57
2022-07-29T10:19:14.689Z,13.30
2022-07-29T10:21:42.322Z,15.57
2022-07-29T10:24:14.648Z,15.93
2022-07-29T10:26:44.854Z,13.32
2022-07-29T10:29:12.422Z,12.70
2022-07-29T10:31:49.099Z,10.25
2022-07-29T10:34:29.493Z,11.52
2022-07-29T10:37:08.925Z,15.13
2022-07-29T10:39:49.866Z,11.20
2022-07-29T10:42:33.443Z,12.35
2022-07-29T10:45:04.947Z,10.35
2022-07-29T10:47:35.418Z,10.85
2022-07-29T10:50:05.898Z,12.45
2022-07-29T10:52:57.168Z,9.43
2022-07-29T10:55:36.302Z,10.48
2022-07-29T10:58:19.180Z,10.68
2022-07-29T11:00:49.549Z,9.60
2022-07-29T11:03:49.707Z,9.18
2022-07-29T11:06:27.038Z,11.07
2022-07-29T11:09:17.717Z,9.40
2022-07-29T11:11:51.541Z,8.65
2022-07-29T11:14:56.965Z,8.23
2022-07-29T11:17:26.080Z,9.88
2022-07-29T11:20:32.831Z,8.97
2022-07-29T11:23:00.461Z,8.93
2022-07-29T11:28:25.087Z,10.38
2022-07-29T11:30:55.211Z,8.18
2022-07-29T11:36:28.196Z,8.02
2022-07-29T11:42:44.449Z,8.77
2022-07-29T11:45:44.312Z,8.23
2022-07-29T11:48:28.982Z,9.07
2022-07-29T11:50:50.619Z,9.55
2022-07-29T11:53:18.806Z,11.00
2022-07-29T11:55:51.095Z,10.55
2022-07-29T11:58:25.058Z,6.55
2022-07-29T12:00:55.687Z,12.88
2022-07-29T12:06:17.428Z,8.52
2022-07-29T12:07:01.291Z,7.70
2022-07-29T12:08:45.897Z,10.43
2022-07-29T12:11:21.155Z,9.45
2022-07-29T12:13:49.802Z,8.57
2022-07-29T12:16:26.068Z,10.13
2022-07-29T12:19:03.058Z,8.60
2022-07-29T12:21:30.984Z,10.98
2022-07-29T12:24:05.685Z,7.10
2022-07-29T12:26:37.244Z,9.95
2022-07-29T12:29:11.344Z,10.10
2022-07-29T12:31:45.334Z,9.68
2022-07-29T12:34:16.896Z,9.30
2022-07-29T12:36:44.783Z,8.38
2022-07-29T12:39:12.697Z,9.95
2022-07-29T12:41:40.198Z,10.73
2022-07-29T12:44:07.740Z,8.27
2022-07-29T12:46:35.196Z,10.68
2022-07-29T12:49:04.111Z,8.90
2022-07-29T12:51:34.547Z,9.63
2022-07-29T12:54:08.006Z,9.15
2022-07-29T12:56:44.087Z,8.27
2022-07-29T12:59:17.503Z,9.98
2022-07-29T13:01:45.479Z,9.80
2022-07-29T13:04:25.628Z,8.73
2022-07-29T13:07:01.932Z,10.88
2022-07-29T13:09:39.326Z,11.05
2022-07-29T13:12:09.013Z,9.95
2022-07-29T13:17:07.670Z,8.07
2022-07-29T13:19:39.321Z,10.48
2022-07-29T13:22:08.630Z,10.82
2022-07-29T13:24:47.267Z,8.95
2022-07-29T13:27:15.586Z,10.67
2022-07-29T13:29:43.043Z,10.48
2022-07-29T13:32:10.500Z,10.02
2022-07-29T13:34:38.035Z,9.15
2022-07-29T13:37:05.661Z,14.40
2022-07-29T13:39:34.553Z,8.95
2022-07-29T13:42:02.749Z,10.10
2022-07-29T13:44:30.230Z,8.30
2022-07-29T13:46:57.683Z,9.43
2022-07-29T13:49:25.100Z,9.52
2022-07-29T13:51:52.556Z,8.93
2022-07-29T13:54:19.946Z,11.60
2022-07-29T13:56:48.836Z,9.05
2022-07-29T13:59:16.239Z,8.55
2022-07-29T14:01:44.114Z,9.40
2022-07-29T14:04:13.023Z,9.75
2022-07-29T14:06:40.656Z,8.00
2022-07-29T14:09:08.717Z,7.90
2022-07-29T14:11:36.414Z,11.57
2022-07-29T14:14:05.567Z,9.55
2022-07-29T14:16:33.001Z,8.95
2022-07-29T14:19:01.132Z,8.02
2022-07-29T14:21:28.688Z,9.45
2022-07-29T14:23:58.109Z,8.23
2022-07-29T14:26:25.792Z,8.70
2022-07-29T14:28:54.982Z,8.05
2022-07-29T14:31:23.942Z,7.65
2022-07-29T14:33:51.430Z,6.28
2022-07-29T14:36:18.867Z,8.63
2022-07-29T14:38:46.252Z,9.00
2022-07-29T14:41:14.982Z,8.05
2022-07-29T14:43:42.418Z,12.52
2022-07-29T14:46:09.995Z,8.15
2022-07-29T14:48:39.043Z,7.60
2022-07-29T14:51:06.494Z,9.60
2022-07-29T14:53:33.919Z,11.38
2022-07-29T14:56:20.872Z,8.25
2022-07-29T14:58:50.154Z,11.45
2022-07-29T15:01:19.295Z,12.50
2022-07-29T15:03:48.386Z,11.15
2022-07-29T15:06:15.929Z,12.30
2022-07-29T15:08:43.502Z,10.00
2022-07-29T15:11:11.016Z,10.23
2022-07-29T15:13:38.846Z,10.98
2022-07-29T15:16:07.247Z,9.43
2022-07-29T15:18:34.795Z,9.18
2022-07-29T15:21:03.767Z,9.38
2022-07-29T15:23:31.332Z,8.88
2022-07-29T15:25:58.740Z,8.80
2022-07-29T15:28:26.206Z,9.23
2022-07-29T15:30:53.574Z,29.15
2022-07-29T15:33:20.978Z,30.35
2022-07-29T15:35:48.404Z,22.38
2022-07-29T15:38:17.579Z,40.03
2022-07-29T15:40:45.166Z,28.48
2022-07-29T15:43:12.645Z,32.75
2022-07-29T15:45:42.048Z,29.10
2022-07-29T15:48:14.522Z,24.47
2022-07-29T15:50:42.387Z,13.00
2022-07-29T15:53:14.529Z,11.30
2022-07-29T15:55:43.341Z,12.80
2022-07-29T15:58:12.014Z,13.20
2022-07-29T16:00:39.700Z,17.20
2022-07-29T16:03:07.162Z,11.73
2022-07-29T16:05:34.679Z,13.77
2022-07-29T16:08:02.132Z,10.07
2022-07-29T16:10:29.636Z,12.55
2022-07-29T16:12:58.564Z,11.48
2022-07-29T16:15:26.317Z,11.98
2022-07-29T16:17:53.694Z,9.23
2022-07-29T16:20:21.380Z,10.27
2022-07-29T16:22:50.115Z,9.02
2022-07-29T16:25:17.732Z,9.93
2022-07-29T16:27:45.231Z,9.77
2022-07-29T16:30:14.476Z,9.82
2022-07-29T16:32:42.004Z,9.00
2022-07-29T16:35:09.982Z,9.75
2022-07-29T16:37:37.442Z,11.20
2022-07-29T16:40:06.570Z,15.95
2022-07-29T16:42:46.748Z,15.38
2022-07-29T16:45:16.716Z,12.57
2022-07-29T16:47:45.926Z,11.43
2022-07-29T16:50:13.330Z,11.98
2022-07-29T16:52:41.014Z,13.38
2022-07-29T16:55:08.807Z,16.63
2022-07-29T16:57:36.212Z,15.18
2022-07-29T17:00:04.422Z,11.50
2022-07-29T17:02:33.220Z,12.33
2022-07-29T17:05:00.597Z,12.00
2022-07-29T17:10:00.674Z,11.25
2022-07-29T17:12:31.161Z,9.88
2022-07-29T17:14:58.825Z,13.27
2022-07-29T17:17:38.990Z,12.45
2022-07-29T17:20:17.619Z,14.45
2022-07-29T17:22:45.175Z,12.07
2022-07-29T17:25:12.675Z,11.82
2022-07-29T17:27:48.765Z,15.57
2022-07-29T17:30:16.358Z,16.88
2022-07-29T17:32:43.828Z,14.93
2022-07-29T17:35:11.307Z,14.95
2022-07-29T17:37:40.216Z,11.45
2022-07-29T17:40:09.056Z,16.20
2022-07-29T17:42:36.572Z,18.33
2022-07-29T17:45:04.596Z,22.67
2022-07-29T17:47:32.051Z,25.95
2022-07-29T17:49:59.511Z,25.90
2022-07-29T17:52:26.964Z,22.15
2022-07-29T17:54:55.777Z,20.95
2022-07-29T17:57:23.178Z,15.87
2022-07-29T17:59:50.728Z,14.98
2022-07-29T18:02:18.261Z,15.45
2022-07-29T18:04:45.868Z,16.92
2022-07-29T18:07:18.094Z,14.82
2022-07-29T18:09:45.694Z,15.77
2022-07-29T18:12:14.683Z,16.55
2022-07-29T18:14:42.328Z,17.75
2022-07-29T18:17:09.710Z,20.02
2022-07-29T18:19:37.095Z,21.92
2022-07-29T18:22:05.075Z,18.83
2022-07-29T18:24:33.204Z,17.90
2022-07-29T18:27:00.967Z,17.27
2022-07-29T18:29:30.101Z,15.43
2022-07-29T18:31:57.605Z,15.60
2022-07-29T18:34:25.026Z,13.30
2022-07-29T18:36:52.488Z,12.52
2022-07-29T18:39:21.236Z,10.98
2022-07-29T18:41:51.009Z,10.70
2022-07-29T18:44:19.504Z,11.25
2022-07-29T18:46:51.688Z,12.68
2022-07-29T18:49:19.642Z,13.23
2022-07-29T18:51:47.239Z,11.75
2022-07-29T18:54:14.980Z,13.48
2022-07-29T18:56:42.335Z,13.77
2022-07-29T18:59:09.769Z,13.32
2022-07-29T19:01:37.341Z,10.82
2022-07-29T19:04:06.301Z,12.35
2022-07-29T19:06:33.739Z,13.38
2022-07-29T19:09:01.242Z,12.18
2022-07-29T19:11:28.683Z,13.05
2022-07-29T19:13:56.068Z,11.63
2022-07-29T19:16:23.533Z,11.25
2022-07-29T19:18:50.991Z,11.00
2022-07-29T19:21:19.955Z,14.90
2022-07-29T19:24:05.895Z,13.20
2022-07-29T19:26:35.179Z,12.98
2022-07-29T19:29:02.625Z,11.40
2022-07-29T19:31:30.566Z,10.70
2022-07-29T19:33:58.020Z,11.13
2022-07-29T19:36:26.860Z,11.65
2022-07-29T19:38:54.258Z,12.37
2022-07-29T19:41:21.649Z,13.43
2022-07-29T19:43:50.864Z,11.35
2022-07-29T19:46:20.567Z,11.07
2022-07-29T19:48:48.159Z,10.80
2022-07-29T19:51:15.594Z,11.52
2022-07-29T19:53:44.628Z,12.18
2022-07-29T19:56:12.043Z,11.25
2022-07-29T19:58:39.416Z,15.52
2022-07-29T20:01:10.254Z,12.18
2022-07-29T20:06:05.612Z,13.13
2022-07-29T20:08:33.005Z,14.30
2022-07-29T20:11:02.139Z,14.63
2022-07-29T20:13:29.555Z,11.73
2022-07-29T20:15:57.010Z,11.68
2022-07-29T20:18:24.384Z,11.98
2022-07-29T20:20:52.038Z,14.68
2022-07-29T20:23:19.599Z,11.00
2022-07-29T20:25:47.019Z,11.40
2022-07-29T20:28:15.840Z,10.85
2022-07-29T20:30:43.227Z,10.47
2022-07-29T20:33:10.769Z,12.50
2022-07-29T20:35:38.146Z,12.10
2022-07-29T20:38:05.531Z,11.32
2022-07-29T20:40:32.938Z,10.90
2022-07-29T20:43:00.338Z,10.48
2022-07-29T20:45:29.151Z,13.30
2022-07-29T20:47:56.622Z,11.77
2022-07-29T20:50:24.362Z,11.48
2022-07-29T20:52:52.568Z,12.50
2022-07-29T20:55:20.407Z,11.30
2022-07-29T20:57:47.797Z,12.93
2022-07-29T21:00:15.559Z,11.15
2022-07-29T21:02:44.496Z,13.88
2022-07-29T21:05:11.961Z,13.88
2022-07-29T21:07:39.358Z,12.73
2022-07-29T21:10:07.519Z,11.93
2022-07-29T21:12:34.932Z,10.88
2022-07-29T21:15:02.324Z,11.60
2022-07-29T21:17:29.697Z,11.57
2022-07-29T21:19:58.487Z,10.57
2022-07-29T21:22:25.882Z,11.17
2022-07-29T21:24:53.275Z,12.40
2022-07-29T21:27:21.737Z,11.77
2022-07-29T21:29:49.887Z,12.23
2022-07-29T21:32:27.623Z,25.10
2022-07-29T21:34:59.077Z,21.23
2022-07-29T21:37:26.476Z,17.35
2022-07-29T21:39:53.854Z,13.63
2022-07-29T21:42:21.314Z,12.40
2022-07-29T21:44:48.871Z,10.05
2022-07-29T21:47:16.262Z,10.30
2022-07-29T21:49:43.764Z,10.68
2022-07-29T21:52:14.162Z,11.27
2022-07-29T21:54:42.386Z,10.95
2022-07-29T21:57:09.914Z,11.68
2022-07-29T21:59:37.315Z,11.40
2022-07-29T22:02:04.709Z,11.60
2022-07-29T22:04:32.389Z,11.73
2022-07-29T22:07:00.022Z,11.95
2022-07-29T22:09:29.075Z,11.35
2022-07-29T22:11:56.450Z,10.65
2022-07-29T22:14:23.928Z,11.65
2022-07-29T22:16:52.992Z,10.27
2022-07-29T22:19:27.519Z,9.98
2022-07-29T22:21:55.045Z,9.85
2022-07-29T22:24:22.453Z,10.50
2022-07-29T22:26:51.277Z,12.80
2022-07-29T22:29:18.699Z,14.33
2022-07-29T22:31:46.106Z,11.65
2022-07-29T22:34:13.586Z,11.55
2022-07-29T22:36:41.080Z,10.85
2022-07-29T22:39:08.481Z,10.45
2022-07-29T22:41:35.931Z,11.07
2022-07-29T22:44:05.051Z,10.15
2022-07-29T22:46:33.544Z,10.75
2022-07-29T22:49:01.190Z,10.27
2022-07-29T22:51:28.599Z,12.38
2022-07-29T22:53:55.969Z,9.77
2022-07-29T22:56:23.700Z,12.95
2022-07-29T22:58:51.180Z,13.13
2022-07-29T23:01:35.824Z,13.90
2022-07-29T23:04:05.895Z,13.35
2022-07-29T23:06:36.060Z,11.85
2022-07-29T23:09:03.489Z,13.27
2022-07-29T23:11:30.899Z,13.15
2022-07-29T23:13:58.499Z,15.95
2022-07-29T23:16:27.393Z,17.92
2022-07-29T23:18:55.569Z,15.30
2022-07-29T23:21:22.994Z,15.18
2022-07-29T23:23:50.876Z,13.05
2022-07-29T23:26:18.359Z,16.75
2022-07-29T23:28:46.006Z,26.83
2022-07-29T23:31:13.875Z,39.28
2022-07-29T23:33:42.703Z,33.78
2022-07-29T23:36:10.226Z,23.53
2022-07-29T23:38:39.181Z,17.90
2022-07-29T23:41:06.658Z,18.40
2022-07-29T23:43:34.047Z,15.63
2022-07-29T23:46:01.475Z,15.80
2022-07-29T23:48:28.878Z,15.60
2022-07-29T23:50:57.745Z,18.67
2022-07-29T23:53:25.135Z,17.60
2022-07-29T23:55:52.516Z,13.02
2022-07-29T23:58:19.967Z,11.23
